Time;durP1;ratioP1;P1;durP2;ratioP2;P2;SDS_P1;SDS_P2;PMS_P1;PMS_P2;Temp;Humidity;BMP_temperature;BMP_pressure;BME280_temperature;BME280_humidity;BME280_pressure;Samples;Min_cycle;Max_cycle;Signal;HPM_P1;HPM_P2
2021/01/12 00:01:43;;;;;;;0.90;0.90;;;;;;;21.05;37.75;100430.84;5036364;28;20262;-74
2021/01/12 00:04:09;;;;;;;0.97;0.97;;;;;;;21.05;37.65;100436.28;5036792;28;20216;-71
2021/01/12 00:06:35;;;;;;;1.00;1.00;;;;;;;21.05;37.71;100428.13;5035476;28;20184;-73
2021/01/12 00:09:02;;;;;;;1.00;1.00;;;;;;;21.05;37.46;100425.41;5036376;28;20187;-66
2021/01/12 00:11:28;;;;;;;1.00;1.00;;;;;;;21.05;37.67;100417.22;5035725;28;20274;-65
2021/01/12 00:13:54;;;;;;;1.07;1.07;;;;;;;21.05;37.62;100413.66;5019604;28;20208;-65
2021/01/12 00:16:20;;;;;;;0.97;0.97;;;;;;;21.05;37.61;100417.22;5018995;28;20188;-65
2021/01/12 00:18:49;;;;;;;1.00;1.00;;;;;;;21.06;37.41;100410.78;5034977;28;20191;-65
2021/01/12 00:21:16;;;;;;;1.00;1.00;;;;;;;21.05;37.38;100405.50;5035878;28;20177;-66
2021/01/12 00:23:42;;;;;;;1.27;1.17;;;;;;;21.04;37.56;100393.78;5018193;28;20338;-73
2021/01/12 00:26:08;;;;;;;1.00;1.00;;;;;;;21.03;37.86;100397.53;5034728;28;20271;-68
2021/01/12 00:28:35;;;;;;;1.00;1.00;;;;;;;21.03;37.94;100389.38;5018311;28;20632;-68
2021/01/12 00:31:05;;;;;;;0.90;0.90;;;;;;;21.05;38.00;100391.91;5018176;28;20303;-71
2021/01/12 00:33:31;;;;;;;0.90;0.90;;;;;;;21.06;37.99;100380.84;5034718;28;20390;-72
2021/01/12 00:36:04;;;;;;;0.90;0.90;;;;;;;21.07;38.07;100355.31;5035005;28;20512;-68
2021/01/12 00:38:30;;;;;;;0.97;0.97;;;;;;;21.10;38.23;100365.81;5018019;28;20176;-73
2021/01/12 00:40:56;;;;;;;0.90;0.90;;;;;;;21.12;38.00;100352.84;5034785;28;20543;-67
2021/01/12 00:43:25;;;;;;;1.00;1.00;;;;;;;21.18;38.28;100356.69;5034647;28;20189;-67
2021/01/12 00:45:51;;;;;;;0.90;0.90;;;;;;;21.20;38.25;100359.19;5018164;28;20200;-72
2021/01/12 00:48:17;;;;;;;0.90;0.90;;;;;;;21.24;38.27;100349.63;5052105;28;20207;-74
2021/01/12 00:50:43;;;;;;;0.83;0.83;;;;;;;21.25;37.93;100340.44;5017945;28;20180;-74
2021/01/12 00:53:09;;;;;;;1.00;1.00;;;;;;;21.28;38.05;100334.59;5017840;28;20275;-73
2021/01/12 00:55:35;;;;;;;0.90;0.90;;;;;;;21.30;38.03;100348.88;5034240;28;20200;-68
2021/01/12 00:58:03;;;;;;;1.00;1.00;;;;;;;21.32;37.70;100335.91;5051809;28;20188;-68
2021/01/12 01:00:29;;;;;;;0.90;0.90;;;;;;;21.34;37.62;100325.66;5017939;28;20191;-67
2021/01/12 01:02:55;;;;;;;1.00;1.00;;;;;;;21.33;37.84;100327.56;5017674;28;20188;-67
2021/01/12 01:05:21;;;;;;;0.90;0.90;;;;;;;21.33;37.48;100321.25;5051504;28;20627;-68
2021/01/12 01:07:48;;;;;;;1.00;1.00;;;;;;;21.31;37.75;100316.00;5051686;28;20184;-66
2021/01/12 01:10:14;;;;;;;1.00;1.00;;;;;;;21.29;37.57;100333.56;5034293;28;20180;-66
2021/01/12 01:12:40;;;;;;;1.00;1.00;;;;;;;21.27;37.51;100311.13;5017743;28;20210;-66
2021/01/12 01:15:07;;;;;;;0.90;0.90;;;;;;;21.24;37.40;100309.66;5051517;28;20290;-70
2021/01/12 01:17:36;;;;;;;0.87;0.87;;;;;;;21.22;37.28;100294.53;5034313;28;20315;-71
2021/01/12 01:20:03;;;;;;;1.00;1.00;;;;;;;21.18;37.53;100290.50;5034157;28;20328;-70
2021/01/12 01:22:29;;;;;;;0.80;0.80;;;;;;;21.12;37.55;100292.97;5034171;28;20184;-71
2021/01/12 01:24:55;;;;;;;0.90;0.90;;;;;;;21.07;37.29;100295.44;5033909;28;20514;-66
2021/01/12 01:27:21;;;;;;;0.80;0.80;;;;;;;21.04;37.29;100289.53;5001418;28;20234;-66
2021/01/12 01:29:47;;;;;;;0.80;0.80;;;;;;;20.99;37.22;100281.13;5017346;28;20184;-67
2021/01/12 01:32:13;;;;;;;0.80;0.80;;;;;;;20.99;37.18;100281.97;5017301;28;20350;-67
2021/01/12 01:34:40;;;;;;;0.93;0.93;;;;;;;20.98;37.43;100280.28;5051262;28;20219;-66
2021/01/12 01:37:06;;;;;;;1.00;1.00;;;;;;;20.98;37.33;100263.94;5001228;28;20192;-67
2021/01/12 01:39:33;;;;;;;0.90;0.90;;;;;;;20.99;37.56;100257.47;5017229;28;20188;-66
2021/01/12 01:42:02;;;;;;;0.60;0.60;;;;;;;21.02;37.50;100270.69;5017410;28;20640;-67
2021/01/12 01:44:28;;;;;;;0.90;0.90;;;;;;;21.03;37.56;100261.47;5017422;28;20223;-67
2021/01/12 01:46:55;;;;;;;0.90;0.90;;;;;;;21.04;37.53;100257.72;5017462;28;20219;-67
2021/01/12 01:49:21;;;;;;;1.00;1.00;;;;;;;21.07;37.60;100251.06;5017451;28;20239;-67
2021/01/12 01:51:47;;;;;;;1.00;1.00;;;;;;;21.09;37.98;100263.44;5033431;28;20348;-67
2021/01/12 01:54:13;;;;;;;0.80;0.80;;;;;;;21.12;37.92;100254.88;5017320;28;20208;-71
2021/01/12 01:56:40;;;;;;;0.93;0.93;;;;;;;21.15;37.63;100249.03;5033723;28;20640;-70
2021/01/12 01:59:06;;;;;;;0.80;0.80;;;;;;;21.18;37.82;100247.81;5017493;28;20184;-71
2021/01/12 02:01:34;;;;;;;0.70;0.70;;;;;;;21.21;37.69;100232.94;5000911;28;20184;-65
2021/01/12 02:04:35;;;;;;;0.80;0.80;;;;;;;21.23;37.81;100233.59;5000856;28;20224;-65
2021/01/12 02:07:02;;;;;;;0.87;0.87;;;;;;;21.28;37.71;100225.69;4950740;29;20640;-65
2021/01/12 02:09:50;;;;;;;0.83;0.83;;;;;;;21.27;37.75;100224.03;5013770;28;20203;-65
2021/01/12 02:12:31;;;;;;;0.80;0.80;;;;;;;21.28;37.36;100220.25;5018781;28;20652;-65
2021/01/12 02:14:58;;;;;;;0.80;0.80;;;;;;;21.26;37.31;100211.44;5033445;28;20617;-67
2021/01/12 02:17:27;;;;;;;0.70;0.70;;;;;;;21.25;37.43;100207.03;5000673;28;20199;-65
2021/01/12 02:19:54;;;;;;;1.00;1.00;;;;;;;21.21;37.36;100209.28;5017345;28;20188;-65
2021/01/12 02:22:21;;;;;;;0.83;0.83;;;;;;;21.20;37.49;100196.72;5033411;28;20640;-72
2021/01/12 02:24:47;;;;;;;0.90;0.90;;;;;;;21.15;37.17;100191.88;5000814;28;20219;-72
2021/01/12 02:27:22;;;;;;;0.83;0.83;;;;;;;21.13;37.19;100184.97;5033641;28;20254;-70
2021/01/12 02:29:49;;;;;;;0.90;0.90;;;;;;;21.08;37.15;100182.84;5018127;28;20215;-70
2021/01/12 02:32:16;;;;;;;0.80;0.80;;;;;;;21.06;37.35;100181.34;5037454;28;20216;-72
2021/01/12 02:34:44;;;;;;;0.77;0.77;;;;;;;21.04;37.38;100165.19;5020545;28;20208;-73
2021/01/12 02:37:14;;;;;;;0.80;0.80;;;;;;;21.04;37.15;100169.78;5030978;28;20227;-73
2021/01/12 02:39:41;;;;;;;0.80;0.80;;;;;;;21.04;37.52;100154.31;5038504;28;20270;-72
2021/01/12 02:42:15;;;;;;;0.70;0.70;;;;;;;21.06;37.36;100163.16;5040172;28;20538;-65
2021/01/12 02:44:41;;;;;;;0.80;0.80;;;;;;;21.06;37.56;100151.44;5056914;28;20290;-65
2021/01/12 02:47:07;;;;;;;0.80;0.80;;;;;;;21.07;37.61;100153.09;5056629;28;20196;-70
2021/01/12 02:49:34;;;;;;;0.80;0.80;;;;;;;21.08;37.40;100143.91;5040142;28;20187;-73
2021/01/12 02:52:00;;;;;;;0.90;0.90;;;;;;;21.09;37.72;100146.41;5056483;28;20243;-73
2021/01/12 02:54:27;;;;;;;0.83;0.83;;;;;;;21.11;37.49;100133.44;5040000;28;20317;-70
2021/01/12 02:56:54;;;;;;;0.60;0.60;;;;;;;21.14;37.77;100138.50;5040400;28;20190;-70
2021/01/12 02:59:20;;;;;;;0.77;0.77;;;;;;;21.16;37.68;100135.56;5023619;28;20198;-70
2021/01/12 03:01:46;;;;;;;0.80;0.80;;;;;;;21.19;37.63;100121.56;5039986;28;20184;-70
2021/01/12 03:04:12;;;;;;;0.70;0.70;;;;;;;21.24;37.70;100120.97;5056264;28;20627;-71
2021/01/12 03:06:38;;;;;;;0.70;0.70;;;;;;;21.25;37.88;100106.34;5039907;28;20179;-73
2021/01/12 03:09:05;;;;;;;0.87;0.87;;;;;;;21.27;37.74;100115.13;5073895;28;20179;-65
2021/01/12 03:11:31;;;;;;;0.67;0.67;;;;;;;21.29;37.75;100107.59;5040210;28;20219;-65
2021/01/12 03:13:58;;;;;;;0.60;0.60;;;;;;;21.30;37.70;100106.59;5039901;28;20226;-66
2021/01/12 03:16:27;;;;;;;0.70;0.70;;;;;;;21.31;37.31;100109.13;5040161;28;20194;-67
2021/01/12 03:18:53;;;;;;;0.60;0.60;;;;;;;21.33;37.53;100098.03;5073668;28;20663;-68
2021/01/12 03:21:19;;;;;;;0.80;0.80;;;;;;;21.32;37.32;100097.19;5039707;28;20256;-67
2021/01/12 03:23:45;;;;;;;0.60;0.60;;;;;;;21.32;37.44;100090.91;5073386;28;20203;-73
2021/01/12 03:26:11;;;;;;;0.70;0.70;;;;;;;21.29;37.26;100091.28;5055814;28;20720;-74
2021/01/12 03:28:37;;;;;;;0.80;0.80;;;;;;;21.26;37.24;100092.53;5022796;28;20195;-73
2021/01/12 03:31:03;;;;;;;0.70;0.70;;;;;;;21.23;37.36;100090.16;5055908;28;20208;-73
2021/01/12 03:33:30;;;;;;;0.87;0.87;;;;;;;21.20;37.08;100087.00;5039115;28;20568;-67
2021/01/12 03:35:57;;;;;;;0.70;0.70;;;;;;;21.16;37.16;100083.84;5039587;28;20596;-67
2021/01/12 03:38:23;;;;;;;0.73;0.73;;;;;;;21.12;37.06;100074.41;5055855;28;20192;-67
2021/01/12 03:40:49;;;;;;;0.60;0.60;;;;;;;21.13;37.06;100068.78;5055264;28;20190;-67
2021/01/12 03:43:15;;;;;;;0.47;0.47;;;;;;;21.12;37.48;100068.97;5055008;28;20574;-71
2021/01/12 03:45:41;;;;;;;0.73;0.73;;;;;;;21.12;37.35;100072.53;5039012;28;20187;-71
2021/01/12 03:48:07;;;;;;;0.60;0.60;;;;;;;21.11;37.21;100059.97;5022466;28;20242;-65
2021/01/12 03:50:33;;;;;;;0.77;0.77;;;;;;;21.13;37.57;100062.50;5073118;28;20195;-72
2021/01/12 03:52:59;;;;;;;0.60;0.60;;;;;;;21.15;37.64;100042.19;5073725;28;20279;-68
2021/01/12 03:55:25;;;;;;;0.60;0.60;;;;;;;21.16;37.43;100056.66;5039052;28;20268;-71
2021/01/12 03:57:51;;;;;;;0.70;0.70;;;;;;;21.18;37.52;100051.00;5055592;28;20611;-70
2021/01/12 04:00:18;;;;;;;0.50;0.50;;;;;;;21.20;37.47;100047.03;5073032;28;20199;-71
2021/01/12 04:02:44;;;;;;;0.70;0.70;;;;;;;21.23;37.72;100040.34;5055293;28;20191;-69
2021/01/12 04:05:10;;;;;;;0.70;0.70;;;;;;;21.25;37.66;100035.56;5038390;28;20211;-64
2021/01/12 04:07:37;;;;;;;0.53;0.53;;;;;;;21.28;37.90;100025.09;5055034;28;20195;-64
2021/01/12 04:10:04;;;;;;;0.63;0.63;;;;;;;21.31;37.91;100029.34;5038564;28;20191;-64
2021/01/12 04:12:30;;;;;;;0.60;0.60;;;;;;;21.34;37.73;100023.47;5038376;28;20223;-64
2021/01/12 04:14:56;;;;;;;0.50;0.50;;;;;;;21.36;37.72;100027.66;5055063;28;20438;-70
2021/01/12 04:17:22;;;;;;;0.60;0.60;;;;;;;21.39;37.63;100020.97;5055265;28;20222;-66
2021/01/12 04:19:48;;;;;;;0.60;0.60;;;;;;;21.40;37.57;100015.31;5038186;28;20183;-66
2021/01/12 04:22:14;;;;;;;0.40;0.40;;;;;;;21.42;37.71;100009.69;5054895;28;20201;-66
2021/01/12 04:24:40;;;;;;;0.50;0.50;;;;;;;21.43;37.47;100016.81;5038328;28;20208;-70
2021/01/12 04:27:06;;;;;;;0.60;0.60;;;;;;;21.44;37.42;100015.75;5055064;28;20183;-64
2021/01/12 04:29:32;;;;;;;0.70;0.70;;;;;;;21.45;37.57;100003.81;5072288;28;20191;-65
2021/01/12 04:31:58;;;;;;;0.50;0.50;;;;;;;21.43;37.23;99989.56;5072171;28;20398;-71
2021/01/12 04:34:24;;;;;;;0.53;0.53;;;;;;;21.41;37.29;99997.09;5072067;28;20203;-65
2021/01/12 04:36:51;;;;;;;0.40;0.40;;;;;;;21.37;37.34;99991.25;5037867;28;20237;-70
2021/01/12 04:39:17;;;;;;;0.60;0.60;;;;;;;21.35;37.34;99997.94;5021427;28;20207;-65
2021/01/12 04:41:43;;;;;;;0.63;0.63;;;;;;;21.30;37.49;99987.66;5054425;28;20198;-66
2021/01/12 04:44:09;;;;;;;0.97;0.60;;;;;;;21.26;37.49;99978.19;5054504;28;20203;-67
2021/01/12 04:46:35;;;;;;;0.63;0.43;;;;;;;21.22;37.45;99979.63;5037820;28;20191;-72
2021/01/12 04:49:01;;;;;;;0.60;0.60;;;;;;;21.17;37.18;99973.13;5071889;28;20195;-72
2021/01/12 04:51:27;;;;;;;0.60;0.60;;;;;;;21.12;37.40;99960.97;5037802;28;20312;-72
2021/01/12 04:53:53;;;;;;;0.60;0.60;;;;;;;21.12;37.31;99958.25;5037621;28;20346;-70
2021/01/12 04:56:20;;;;;;;0.60;0.60;;;;;;;21.15;37.17;99960.56;5037917;28;20194;-70
2021/01/12 04:58:48;;;;;;;0.40;0.40;;;;;;;21.17;37.44;99964.94;5021095;28;20183;-65
2021/01/12 05:01:21;;;;;;;0.47;0.47;;;;;;;21.17;37.50;99965.78;5021211;28;20660;-65
2021/01/12 05:03:53;;;;;;;0.50;0.50;;;;;;;21.18;37.17;99958.47;5021278;28;20306;-73
2021/01/12 05:06:21;;;;;;;0.60;0.60;;;;;;;21.15;37.29;99946.94;5054271;28;20248;-70
2021/01/12 05:08:54;;;;;;;0.60;0.60;;;;;;;21.16;37.32;99939.63;5037721;28;20195;-67
2021/01/12 05:11:24;;;;;;;0.50;0.50;;;;;;;21.18;37.55;99925.81;5039330;28;20207;-67
2021/01/12 05:13:52;;;;;;;0.50;0.50;;;;;;;21.19;37.71;99932.91;5021307;28;20813;-72
2021/01/12 05:16:18;;;;;;;0.40;0.40;;;;;;;21.20;37.87;99926.44;5021302;28;20188;-72
2021/01/12 05:18:44;;;;;;;0.40;0.40;;;;;;;21.22;37.67;99922.47;5037364;28;20197;-73
2021/01/12 05:21:13;;;;;;;0.50;0.50;;;;;;;21.26;37.67;99928.38;5020189;28;20189;-65
2021/01/12 05:24:01;;;;;;;0.50;0.50;;;;;;;21.28;37.86;99910.78;5025626;28;20207;-65
2021/01/12 05:26:40;;;;;;;0.40;0.40;;;;;;;21.32;37.72;99912.06;5003360;28;20202;-65
2021/01/12 05:29:07;;;;;;;0.60;0.60;;;;;;;21.34;37.86;99911.88;5035484;28;20638;-73
2021/01/12 05:31:36;;;;;;;0.50;0.50;;;;;;;21.35;37.83;99908.94;5034044;28;20256;-73
2021/01/12 05:34:04;;;;;;;0.40;0.40;;;;;;;21.38;37.67;99899.50;5034440;28;20200;-72
2021/01/12 05:36:31;;;;;;;0.40;0.40;;;;;;;21.40;37.68;99897.41;5001158;28;20192;-71
2021/01/12 05:39:02;;;;;;;0.47;0.47;;;;;;;21.41;37.40;99904.53;5033710;28;20635;-71
2021/01/12 05:41:29;;;;;;;0.40;0.40;;;;;;;21.40;37.39;99897.41;5034437;28;20223;-65
2021/01/12 05:43:56;;;;;;;0.50;0.50;;;;;;;21.38;37.70;99884.00;5017783;28;20196;-71
2021/01/12 05:46:22;;;;;;;0.40;0.40;;;;;;;21.34;37.49;99890.94;5051255;28;20271;-70
2021/01/12 05:48:48;;;;;;;0.40;0.40;;;;;;;21.33;37.39;99888.41;5033627;28;20628;-70
2021/01/12 05:51:14;;;;;;;0.50;0.50;;;;;;;21.30;37.42;99888.81;5000740;28;20216;-71
2021/01/12 05:53:46;;;;;;;0.50;0.50;;;;;;;21.26;37.41;99888.38;5033519;28;20208;-71
2021/01/12 05:56:21;;;;;;;0.40;0.40;;;;;;;21.21;37.17;99879.13;5051119;28;20184;-71
2021/01/12 05:58:54;;;;;;;0.50;0.50;;;;;;;21.14;37.27;99871.78;5017661;28;20278;-73
2021/01/12 06:01:56;;;;;;;0.50;0.50;;;;;;;21.10;37.26;99873.25;5021333;28;20513;-73
2021/01/12 06:04:22;;;;;;;0.50;0.50;;;;;;;21.07;37.14;99865.50;5037809;28;20558;-66
2021/01/12 06:06:50;;;;;;;0.30;0.30;;;;;;;21.08;37.25;99864.44;5021268;28;20235;-67
2021/01/12 06:09:19;;;;;;;0.30;0.30;;;;;;;21.11;37.28;99864.03;5037873;28;20616;-67
2021/01/12 06:11:55;;;;;;;0.50;0.50;;;;;;;21.11;37.28;99871.38;5040633;28;20212;-67
2021/01/12 06:14:23;;;;;;;0.40;0.40;;;;;;;21.11;37.47;99876.81;5042212;28;20575;-67
2021/01/12 06:16:49;;;;;;;0.40;0.40;;;;;;;21.11;37.34;99855.88;5024302;28;20196;-70
2021/01/12 06:19:17;;;;;;;0.40;0.40;;;;;;;21.12;37.65;99857.56;5040751;28;20844;-70
2021/01/12 06:21:55;;;;;;;0.33;0.33;;;;;;;21.16;37.74;99852.53;5057577;28;20714;-70
2021/01/12 06:24:27;;;;;;;0.40;0.40;;;;;;;21.15;37.64;99856.28;5056908;28;20195;-66
2021/01/12 06:26:53;;;;;;;0.30;0.30;;;;;;;21.18;37.67;99855.03;5057001;28;20183;-70
2021/01/12 06:29:22;;;;;;;0.40;0.40;;;;;;;21.22;37.81;99851.69;5040663;28;20190;-71
2021/01/12 06:31:49;;;;;;;0.30;0.30;;;;;;;21.23;37.72;99847.09;5057041;28;20219;-71
2021/01/12 06:34:19;;;;;;;0.30;0.30;;;;;;;21.26;37.69;99835.81;5040504;28;20647;-72
2021/01/12 06:36:53;;;;;;;0.30;0.30;;;;;;;21.29;37.69;99840.84;5057035;28;20188;-71
2021/01/12 06:39:39;;;;;;;0.40;0.40;;;;;;;21.32;37.51;99845.91;5041380;28;20199;-66
2021/01/12 06:42:06;;;;;;;0.30;0.30;;;;;;;21.32;37.71;99833.13;5040181;28;20543;-74
2021/01/12 06:44:33;;;;;;;0.20;0.20;;;;;;;21.34;37.71;99832.91;5023772;28;20203;-66
2021/01/12 06:46:59;;;;;;;0.33;0.33;;;;;;;21.34;37.63;99827.47;5023802;28;20183;-66
2021/01/12 06:49:27;;;;;;;0.20;0.20;;;;;;;21.36;37.61;99825.38;5040123;28;20175;-74
2021/01/12 06:52:03;;;;;;;0.50;0.50;;;;;;;21.37;37.49;99822.44;5024284;28;20218;-75
2021/01/12 06:54:33;;;;;;;0.30;0.30;;;;;;;21.39;37.38;99823.06;5057216;28;20310;-70
2021/01/12 06:57:06;;;;;;;1.90;0.50;;;;;;;21.39;37.74;99820.34;5057035;28;20259;-65
2021/01/12 06:59:56;;;;;;;0.73;0.40;;;;;;;21.42;37.56;99819.09;5040489;28;20267;-64
2021/01/12 07:02:25;;;;;;;0.37;0.33;;;;;;;21.40;37.72;99816.59;5047813;28;20272;-68
2021/01/12 07:04:58;;;;;;;0.40;0.40;;;;;;;21.42;37.38;99821.81;5036872;28;20243;-69
2021/01/12 07:07:26;;;;;;;0.87;0.50;;;;;;;21.40;37.67;99818.47;5020046;28;20189;-66
2021/01/12 07:10:03;;;;;;;0.67;0.40;;;;;;;21.40;37.60;99813.84;5050198;28;20308;-64
2021/01/12 07:12:30;;;;;;;0.73;0.50;;;;;;;21.40;37.68;99818.47;5033435;28;20320;-65
2021/01/12 07:14:58;;;;;;;0.50;0.30;;;;;;;21.39;37.71;99812.19;5051188;28;20212;-65
2021/01/12 07:17:29;;;;;;;0.63;0.40;;;;;;;21.38;37.68;99815.94;5033690;28;20184;-65
2021/01/12 07:20:15;;;;;;;1.43;0.50;;;;;;;21.34;37.61;99811.13;5033948;28;20203;-65
2021/01/12 07:23:00;;;;;;;0.40;0.40;;;;;;;21.31;37.54;99809.69;5053121;28;20184;-66
2021/01/12 07:25:40;;;;;;;0.30;0.30;;;;;;;21.28;37.79;99818.22;5038961;28;20195;-65
2021/01/12 07:28:09;;;;;;;0.30;0.30;;;;;;;21.25;37.94;99804.19;5056352;28;20266;-65
2021/01/12 07:30:36;;;;;;;1.10;0.50;;;;;;;21.24;37.92;99802.53;5039270;28;20234;-63
2021/01/12 07:33:17;;;;;;;0.40;0.40;;;;;;;21.27;38.04;99813.00;5022813;28;20704;-62
2021/01/12 07:35:45;;;;;;;0.30;0.30;;;;;;;21.27;38.21;99815.72;5040505;28;20663;-62
2021/01/12 07:38:19;;;;;;;0.40;0.40;;;;;;;21.27;38.10;99808.38;5007003;28;20197;-64
2021/01/12 07:40:45;;;;;;;0.90;0.30;;;;;;;21.27;37.97;99804.84;5005045;28;20254;-63
2021/01/12 07:43:16;;;;;;;0.70;0.40;;;;;;;21.27;37.90;99811.13;5004037;28;20242;-66
2021/01/12 07:45:42;;;;;;;0.40;0.40;;;;;;;21.26;38.06;99808.59;5036690;28;20180;-67
2021/01/12 07:48:08;;;;;;;0.40;0.40;;;;;;;21.27;38.09;99810.28;5020615;28;20177;-63
2021/01/12 07:50:34;;;;;;;0.27;0.27;;;;;;;21.26;37.97;99814.03;5036695;28;20230;-63
2021/01/12 07:53:03;;;;;;;0.30;0.30;;;;;;;21.26;37.95;99808.59;5020318;28;20208;-63
2021/01/12 07:55:29;;;;;;;0.33;0.30;;;;;;;21.26;38.05;99803.16;5036446;28;20196;-63
2021/01/12 07:57:57;;;;;;;0.53;0.40;;;;;;;21.26;37.89;99805.88;5036536;28;20200;-63
2021/01/12 08:00:23;;;;;;;0.30;0.30;;;;;;;21.25;38.06;99801.47;5019898;28;20194;-63
2021/01/12 08:02:50;;;;;;;0.73;0.30;;;;;;;21.24;37.71;99813.41;5053880;28;20185;-70
2021/01/12 08:05:18;;;;;;;0.40;0.40;;;;;;;21.23;37.63;99811.72;5036170;28;20847;-70
2021/01/12 08:07:45;;;;;;;0.40;0.40;;;;;;;21.23;37.81;99814.44;5024188;28;20287;-70
2021/01/12 08:10:11;;;;;;;0.40;0.30;;;;;;;21.21;37.54;99811.09;5025628;28;20183;-66
2021/01/12 08:12:37;;;;;;;0.23;0.23;;;;;;;21.20;37.75;99820.28;5029339;28;20238;-64
2021/01/12 08:15:13;;;;;;;0.70;0.60;;;;;;;21.19;37.51;99819.44;5049161;28;20701;-62
2021/01/12 08:17:49;;;;;;;1.67;1.07;;;;;;;21.18;37.60;99803.34;5031954;28;20245;-65
2021/01/12 08:20:16;;;;;;;1.63;1.00;;;;;;;21.14;37.81;99809.19;5019015;28;20644;-65
2021/01/12 08:22:51;;;;;;;1.30;1.10;;;;;;;21.13;37.78;99815.69;5019830;28;20690;-65
2021/01/12 08:25:18;;;;;;;1.20;1.10;;;;;;;21.10;37.73;99820.72;5035901;28;20295;-65
2021/01/12 08:27:59;;;;;;;1.20;1.10;;;;;;;21.08;37.96;99839.97;5053036;28;20539;-65
2021/01/12 08:30:27;;;;;;;1.03;1.00;;;;;;;21.07;37.84;99846.44;5053381;28;20200;-65
2021/01/12 08:32:58;;;;;;;2.30;1.20;;;;;;;21.06;38.09;99852.09;5053238;28;20262;-69
2021/01/12 08:35:28;;;;;;;1.70;1.40;;;;;;;21.08;38.25;99852.72;5035727;28;20745;-70
2021/01/12 08:37:57;;;;;;;1.20;1.10;;;;;;;21.10;38.06;99856.91;5019270;28;20180;-70
2021/01/12 08:40:23;;;;;;;1.43;0.80;;;;;;;21.09;38.07;99860.69;5002796;28;20187;-69
2021/01/12 08:42:49;;;;;;;1.10;1.00;;;;;;;21.11;38.35;99860.47;5035430;28;20180;-69
2021/01/12 08:45:16;;;;;;;1.70;1.10;;;;;;;21.15;38.31;99864.47;5019227;28;20215;-69
2021/01/12 08:47:45;;;;;;;0.97;0.97;;;;;;;21.17;38.26;99870.53;5004681;28;20877;-69
2021/01/12 08:50:11;;;;;;;2.33;1.30;;;;;;;21.21;38.38;99862.78;5035286;28;20182;-66
2021/01/12 08:52:38;;;;;;;1.77;1.30;;;;;;;21.23;38.09;99874.31;5034541;28;20674;-66
2021/01/12 08:55:15;;;;;;;1.13;1.03;;;;;;;21.27;38.19;99870.16;5035161;28;20651;-66
2021/01/12 08:57:41;;;;;;;1.70;1.27;;;;;;;21.28;37.99;99858.22;5002682;28;20187;-65
2021/01/12 09:00:14;;;;;;;1.20;1.10;;;;;;;21.30;38.25;99878.78;5018936;28;20190;-65
2021/01/12 09:02:40;;;;;;;1.40;1.30;;;;;;;21.31;37.89;99882.34;5035164;28;20312;-65
2021/01/12 09:05:07;;;;;;;1.17;1.03;;;;;;;21.32;38.11;99889.47;5035056;28;20326;-66
2021/01/12 09:07:33;;;;;;;1.13;1.00;;;;;;;21.31;37.83;99887.78;5034461;28;20184;-65
2021/01/12 09:09:59;;;;;;;1.17;1.00;;;;;;;21.32;37.71;99889.47;5018338;28;20234;-65
2021/01/12 09:12:26;;;;;;;2.13;1.07;;;;;;;21.31;37.74;99895.94;5035002;28;20521;-65
2021/01/12 09:14:52;;;;;;;1.13;0.93;;;;;;;21.30;37.67;99891.53;5035098;28;20664;-65
2021/01/12 09:17:19;;;;;;;0.90;0.90;;;;;;;21.28;37.71;99891.72;5051467;28;20254;-65
2021/01/12 09:19:52;;;;;;;1.30;1.07;;;;;;;21.26;37.79;99891.09;5018656;28;20176;-65
2021/01/12 09:22:19;;;;;;;1.10;1.03;;;;;;;21.24;37.34;99904.06;5052245;28;20628;-65
2021/01/12 09:24:50;;;;;;;1.30;1.20;;;;;;;21.25;37.78;99899.47;5018273;28;20291;-65
2021/01/12 09:27:17;;;;;;;1.00;0.90;;;;;;;21.24;37.87;99908.69;5035001;28;20273;-65
2021/01/12 09:29:44;;;;;;;1.00;1.00;;;;;;;21.23;37.94;99912.41;5002186;28;20275;-65
2021/01/12 09:32:11;;;;;;;1.00;0.90;;;;;;;21.24;37.83;99919.56;5052198;28;20208;-65
2021/01/12 09:34:40;;;;;;;1.20;1.10;;;;;;;21.22;37.79;99922.47;5034921;28;20196;-65
2021/01/12 09:37:18;;;;;;;1.20;1.03;;;;;;;21.24;37.56;99927.72;5018816;28;20202;-69
2021/01/12 09:39:50;;;;;;;1.93;0.90;;;;;;;21.22;37.90;99922.47;5023435;28;20193;-69
2021/01/12 09:42:22;;;;;;;1.47;1.00;;;;;;;21.21;37.69;99931.66;5035407;28;20234;-69
2021/01/12 09:44:48;;;;;;;1.20;1.10;;;;;;;21.18;37.84;99937.53;5018216;28;20749;-69
2021/01/12 09:47:14;;;;;;;1.37;1.10;;;;;;;21.17;37.82;99940.47;5018089;28;20199;-69
2021/01/12 09:49:40;;;;;;;1.20;0.97;;;;;;;21.17;37.92;99956.78;5018078;28;20192;-69
2021/01/12 09:52:06;;;;;;;1.10;1.00;;;;;;;21.15;37.98;99955.09;5034543;28;20204;-69
2021/01/12 09:54:33;;;;;;;1.00;0.90;;;;;;;21.18;38.20;99964.75;5034320;28;20211;-65
2021/01/12 09:56:59;;;;;;;1.30;1.10;;;;;;;21.19;38.04;99965.59;5016970;28;20191;-65
2021/01/12 09:59:25;;;;;;;1.33;0.87;;;;;;;21.20;38.09;99965.38;5030782;28;20520;-68
2021/01/12 10:01:55;;;;;;;1.03;0.93;;;;;;;21.24;38.13;99963.13;5022543;28;20267;-69
2021/01/12 10:04:21;;;;;;;1.23;1.00;;;;;;;21.25;38.41;99962.06;5017658;28;20248;-62
2021/01/12 10:06:53;;;;;;;0.80;0.80;;;;;;;21.26;38.38;99978.19;5044425;28;20283;-61
2021/01/12 10:09:19;;;;;;;0.90;0.90;;;;;;;21.29;38.22;99993.28;4998031;28;20181;-69
2021/01/12 10:11:45;;;;;;;1.03;0.90;;;;;;;21.30;38.39;99990.38;5050814;28;20315;-69
2021/01/12 10:14:11;;;;;;;0.83;0.80;;;;;;;21.34;38.23;99999.81;5051893;28;20718;-62
2021/01/12 10:16:37;;;;;;;1.10;0.90;;;;;;;21.36;38.30;99995.00;5049885;28;20318;-65
2021/01/12 10:19:04;;;;;;;0.80;0.80;;;;;;;21.40;38.61;99998.16;5053377;28;20688;-65
2021/01/12 10:21:30;;;;;;;1.13;0.80;;;;;;;21.43;38.52;100011.34;5034366;28;20203;-61
2021/01/12 10:23:56;;;;;;;0.70;0.70;;;;;;;21.46;38.64;100013.66;5051564;28;20200;-63
2021/01/12 10:26:22;;;;;;;0.80;0.80;;;;;;;21.50;38.62;100017.66;5051672;28;20184;-61
2021/01/12 10:28:48;;;;;;;0.67;0.67;;;;;;;21.54;38.85;100010.78;5033863;28;20220;-62
2021/01/12 10:31:16;;;;;;;1.20;0.70;;;;;;;21.59;38.55;100011.00;5017649;28;20212;-68
2021/01/12 10:33:43;;;;;;;1.30;0.80;;;;;;;21.62;38.70;100020.63;5034277;28;20291;-70
2021/01/12 10:36:12;;;;;;;1.50;0.97;;;;;;;21.68;38.79;100023.38;5034125;28;20525;-69
2021/01/12 10:38:38;;;;;;;1.27;0.83;;;;;;;21.70;38.61;100018.56;5030541;28;20219;-70
2021/01/12 10:41:04;;;;;;;1.17;0.80;;;;;;;21.75;38.49;100032.41;5051432;28;20586;-69
2021/01/12 10:43:30;;;;;;;2.17;0.80;;;;;;;21.80;38.53;100034.53;5033828;28;20192;-69
2021/01/12 10:45:57;;;;;;;1.00;0.90;;;;;;;21.84;38.60;100034.94;5017639;28;20180;-69
2021/01/12 10:48:23;;;;;;;0.80;0.80;;;;;;;21.87;38.61;100029.91;5034156;28;20258;-69
2021/01/12 10:50:49;;;;;;;1.80;1.00;;;;;;;21.92;38.66;100037.47;5051268;28;20187;-69
2021/01/12 10:53:15;;;;;;;0.93;0.70;;;;;;;21.96;38.73;100039.56;5040047;28;20183;-70
2021/01/12 10:55:41;;;;;;;0.93;0.80;;;;;;;22.00;38.50;100037.25;5042063;28;20591;-68
2021/01/12 10:58:07;;;;;;;1.90;0.80;;;;;;;22.04;39.07;100046.75;5025943;28;20183;-68
2021/01/12 11:00:34;;;;;;;2.70;1.00;;;;;;;22.08;38.96;100050.75;5045227;28;20266;-69
2021/01/12 11:03:00;;;;;;;2.63;0.97;;;;;;;22.14;39.03;100058.09;5034566;28;20188;-67
2021/01/12 11:05:26;;;;;;;1.47;0.90;;;;;;;22.18;39.25;100053.91;5020365;28;20234;-65
2021/01/12 11:07:52;;;;;;;1.63;0.73;;;;;;;22.23;39.32;100059.56;5001677;28;20192;-66
2021/01/12 11:10:18;;;;;;;6.13;0.97;;;;;;;22.27;39.05;100062.72;5027657;28;20193;-74
2021/01/12 11:12:45;;;;;;;1.92;1.00;;;;;;;22.10;39.31;100075.06;5039494;28;20446;-65
2021/01/12 11:15:13;;;;;;;1.93;0.83;;;;;;;22.24;39.44;100074.91;5023337;28;20787;-63
2021/01/12 11:17:40;;;;;;;2.03;1.17;;;;;;;22.33;39.34;100079.09;4982874;28;20201;-66
2021/01/12 11:20:09;;;;;;;2.07;0.90;;;;;;;22.41;39.23;100079.91;5037628;28;20192;-67
2021/01/12 11:22:35;;;;;;;1.73;1.00;;;;;;;22.47;39.24;100084.53;5052374;28;20176;-65
2021/01/12 11:25:05;;;;;;;1.37;0.97;;;;;;;22.54;39.11;100085.41;5025126;28;20212;-64
2021/01/12 11:27:32;;;;;;;2.40;1.00;;;;;;;22.57;39.19;100107.63;5049271;28;20199;-64
2021/01/12 11:29:59;;;;;;;1.00;0.63;;;;;;;22.62;39.41;100107.00;5059937;28;20177;-65
2021/01/12 11:32:25;;;;;;;3.00;1.00;;;;;;;22.65;39.35;100101.13;5052333;28;20233;-64
2021/01/12 11:34:51;;;;;;;1.50;0.80;;;;;;;22.69;39.20;100105.09;5059153;28;20225;-64